createdAt,value
2018-11-01T00:00:39.986Z,1021.73
2018-11-01T00:02:07.217Z,1021.76
2018-11-01T00:03:34.548Z,1021.77
2018-11-01T00:05:01.993Z,1021.79
2018-11-01T00:06:29.197Z,1021.79
2018-11-01T00:07:56.541Z,1021.79
2018-11-01T00:09:23.734Z,1021.79
2018-11-01T00:10:51.092Z,1021.76
2018-11-01T00:12:18.412Z,1021.76
2018-11-01T00:13:45.560Z,1021.76
2018-11-01T00:15:12.977Z,1021.74
2018-11-01T00:16:43.280Z,1021.77
2018-11-01T00:18:07.559Z,1021.80
2018-11-01T00:19:34.814Z,1021.82
2018-11-01T00:21:02.224Z,1021.84
2018-11-01T00:22:29.532Z,1021.89
2018-11-01T00:23:56.844Z,1021.91
2018-11-01T00:25:24.216Z,1021.90
2018-11-01T00:26:51.400Z,1021.91
2018-11-01T00:28:18.819Z,1021.91
2018-11-01T00:29:46.258Z,1021.92
2018-11-01T00:31:13.649Z,1021.93
2018-11-01T00:32:40.999Z,1021.93
2018-11-01T00:34:08.379Z,1021.93
2018-11-01T00:35:35.727Z,1021.94
2018-11-01T00:37:03.062Z,1021.96
2018-11-01T00:38:30.355Z,1021.94
2018-11-01T00:39:57.755Z,1021.91
2018-11-01T00:41:25.109Z,1021.93
2018-11-01T00:42:52.411Z,1021.88
2018-11-01T00:44:19.673Z,1021.85
2018-11-01T00:45:47.016Z,1021.86
2018-11-01T00:47:14.385Z,1021.83
2018-11-01T00:48:41.758Z,1021.82
2018-11-01T00:50:09.151Z,1021.81
2018-11-01T00:51:36.423Z,1021.79
2018-11-01T00:53:03.893Z,1021.79
2018-11-01T00:54:31.063Z,1021.76
2018-11-01T00:55:58.401Z,1021.73
2018-11-01T00:57:25.724Z,1021.71
2018-11-01T00:58:53.076Z,1021.72
2018-11-01T01:00:20.368Z,1021.70
2018-11-01T01:01:47.646Z,1021.65
2018-11-01T01:03:15.032Z,1021.66
2018-11-01T01:04:42.308Z,1021.65
2018-11-01T01:06:09.663Z,1021.61
2018-11-01T01:07:37.067Z,1021.57
2018-11-01T01:09:04.417Z,1021.55
2018-11-01T01:10:31.758Z,1021.54
2018-11-01T01:11:59.113Z,1021.58
2018-11-01T01:13:26.428Z,1021.56
2018-11-01T01:14:53.764Z,1021.54
2018-11-01T01:16:21.124Z,1021.52
2018-11-01T01:17:48.534Z,1021.50
2018-11-01T01:19:15.812Z,1021.50
2018-11-01T01:20:43.270Z,1021.48
2018-11-01T01:22:10.565Z,1021.47
2018-11-01T01:23:37.911Z,1021.45
2018-11-01T01:25:05.185Z,1021.43
2018-11-01T01:26:32.434Z,1021.42
2018-11-01T01:27:59.733Z,1021.40
2018-11-01T01:29:27.132Z,1021.36
2018-11-01T01:30:54.371Z,1021.30
2018-11-01T01:32:21.677Z,1021.28
2018-11-01T01:33:48.696Z,1021.26
2018-11-01T01:35:15.986Z,1021.23
2018-11-01T01:36:43.233Z,1021.18
2018-11-01T01:38:10.508Z,1021.17
2018-11-01T01:39:37.785Z,1021.13
2018-11-01T01:41:05.092Z,1021.14
2018-11-01T01:42:32.313Z,1021.10
2018-11-01T01:43:59.538Z,1021.11
2018-11-01T01:45:26.929Z,1021.14
2018-11-01T01:46:54.113Z,1021.16
2018-11-01T01:48:21.477Z,1021.15
2018-11-01T01:49:48.837Z,1021.17
2018-11-01T01:51:16.154Z,1021.19
2018-11-01T01:52:43.582Z,1021.15
2018-11-01T01:54:10.805Z,1021.16
2018-11-01T01:55:38.178Z,1021.14
2018-11-01T01:57:05.276Z,1021.15
2018-11-01T01:58:32.471Z,1021.13
2018-11-01T01:59:59.655Z,1021.09
2018-11-01T02:01:27.072Z,1021.07
2018-11-01T02:02:54.291Z,1021.03
2018-11-01T02:04:21.468Z,1021.04
2018-11-01T02:05:48.797Z,1021.01
2018-11-01T02:07:15.917Z,1021.01
2018-11-01T02:08:43.355Z,1021.01
2018-11-01T02:10:10.541Z,1020.97
2018-11-01T02:11:38.028Z,1020.97
2018-11-01T02:13:05.281Z,1020.96
2018-11-01T02:14:32.467Z,1021.00
2018-11-01T02:15:59.814Z,1020.99
2018-11-01T02:17:27.065Z,1020.98
2018-11-01T02:18:54.394Z,1020.99
2018-11-01T02:20:21.613Z,1021.00
2018-11-01T02:35:13.545Z,1021.11
2018-11-01T02:36:40.138Z,1021.10
2018-11-01T02:38:07.252Z,1021.11
2018-11-01T02:39:34.378Z,1021.09
2018-11-01T02:41:01.526Z,1021.07
2018-11-01T02:42:28.828Z,1021.04
2018-11-01T02:43:56.238Z,1021.03
2018-11-01T03:07:21.756Z,1021.00
2018-11-01T03:08:48.216Z,1020.97
2018-11-01T03:10:14.964Z,1020.96
2018-11-01T03:11:42.207Z,1020.93
2018-11-01T03:26:14.796Z,1020.86
2018-11-01T03:27:41.255Z,1020.88
2018-11-01T03:29:08.421Z,1020.86
2018-11-01T03:30:35.554Z,1020.84
2018-11-01T03:32:02.861Z,1020.85
2018-11-01T03:33:30.191Z,1020.83
2018-11-01T03:43:11.715Z,1020.86
2018-11-01T03:44:38.358Z,1020.84
2018-11-01T03:46:08.498Z,1020.79
2018-11-01T03:47:32.632Z,1020.72
2018-11-01T03:49:00.065Z,1020.71
2018-11-01T03:50:27.310Z,1020.73
2018-11-01T03:51:54.564Z,1020.73
2018-11-01T03:53:21.552Z,1020.73
2018-11-01T03:54:48.565Z,1020.76
2018-11-01T03:56:15.688Z,1020.76
2018-11-01T03:57:42.862Z,1020.74
2018-11-01T03:59:10.047Z,1020.76
2018-11-01T04:00:37.243Z,1020.74
2018-11-01T04:02:43.319Z,1020.75
2018-11-01T04:04:19.822Z,1020.74
2018-11-01T04:17:53.677Z,1020.65
2018-11-01T04:19:20.095Z,1020.60
2018-11-01T04:20:47.328Z,1020.59
2018-11-01T04:22:14.596Z,1020.57
2018-11-01T04:23:41.821Z,1020.55
2018-11-01T04:25:08.917Z,1020.54
2018-11-01T04:26:36.025Z,1020.51
2018-11-01T10:07:55.163Z,1017.13
2018-11-01T10:09:21.697Z,1017.13
2018-11-01T10:10:49.033Z,1017.15
2018-11-01T10:12:16.138Z,1017.11
2018-11-01T10:18:25.039Z,1017.13
2018-11-01T10:29:51.972Z,1016.96
2018-11-01T10:31:18.668Z,1017.06
2018-11-01T10:32:45.813Z,1017.07
2018-11-01T10:34:12.948Z,1017.07
2018-11-01T10:35:40.180Z,1017.03
2018-11-01T10:37:07.530Z,1016.98
2018-11-01T10:38:34.870Z,1016.93
2018-11-01T10:40:02.164Z,1016.91
2018-11-01T10:41:29.331Z,1016.95
2018-11-01T10:42:56.403Z,1017.04
2018-11-01T10:44:23.566Z,1017.09
2018-11-01T10:45:50.713Z,1017.05
2018-11-01T10:47:18.066Z,1017.05
2018-11-01T10:48:45.176Z,1017.04
2018-11-01T10:50:12.505Z,1017.01
2018-11-01T10:51:39.836Z,1017.00
2018-11-01T10:53:07.184Z,1017.00
2018-11-01T10:54:34.555Z,1016.91
2018-11-01T10:56:01.797Z,1016.92
2018-11-01T10:57:28.893Z,1016.93
2018-11-01T10:58:56.045Z,1016.94
2018-11-01T11:00:23.444Z,1016.87
2018-11-01T11:01:50.458Z,1016.88
2018-11-01T11:03:17.687Z,1016.88
2018-11-01T11:04:44.822Z,1016.91
2018-11-01T11:06:12.173Z,1016.90
2018-11-01T11:07:39.544Z,1016.86
2018-11-01T11:09:06.746Z,1016.84
2018-11-01T11:10:33.985Z,1016.82
2018-11-01T11:12:01.322Z,1016.75
2018-11-01T11:13:28.502Z,1016.67
2018-11-01T11:14:55.700Z,1016.58
2018-11-01T11:16:22.939Z,1016.42
2018-11-01T11:17:50.169Z,1016.35
2018-11-01T11:19:17.351Z,1016.29
2018-11-01T11:20:44.887Z,1016.23
2018-11-01T11:22:11.965Z,1016.14
2018-11-01T11:23:39.274Z,1016.13
2018-11-01T11:25:06.599Z,1016.07
2018-11-01T11:26:33.967Z,1016.08
2018-11-01T11:28:01.248Z,1016.08
2018-11-01T11:29:28.617Z,1016.06
2018-11-01T11:30:55.705Z,1015.97
2018-11-01T11:32:23.102Z,1015.89
2018-11-01T11:33:50.292Z,1015.83
2018-11-01T11:35:17.499Z,1015.84
2018-11-01T11:36:44.838Z,1015.82
2018-11-01T11:38:12.308Z,1015.77
2018-11-01T11:39:39.571Z,1015.69
2018-11-01T11:41:06.800Z,1015.63
2018-11-01T11:42:34.148Z,1015.60
2018-11-01T11:44:01.540Z,1015.59
2018-11-01T11:45:28.710Z,1015.60
2018-11-01T11:46:56.093Z,1015.64
2018-11-01T11:48:23.621Z,1015.70
2018-11-01T11:49:50.687Z,1015.76
2018-11-01T11:51:17.867Z,1015.85
2018-11-01T11:52:45.210Z,1015.88
2018-11-01T11:54:12.607Z,1015.91
2018-11-01T11:55:39.981Z,1015.95
2018-11-01T11:57:07.377Z,1015.95
2018-11-01T11:58:34.567Z,1015.91
2018-11-01T12:00:01.870Z,1015.86
2018-11-01T12:01:29.199Z,1015.85
2018-11-01T12:02:56.310Z,1015.80
2018-11-01T12:04:23.711Z,1015.78
2018-11-01T12:05:50.942Z,1015.83
2018-11-01T12:07:18.186Z,1015.83
2018-11-01T12:08:45.237Z,1015.83
2018-11-01T12:10:12.476Z,1015.78
2018-11-01T12:11:39.685Z,1015.67
2018-11-01T12:13:07.101Z,1015.64
2018-11-01T12:14:34.515Z,1015.66
2018-11-01T12:16:01.930Z,1015.69
2018-11-01T12:17:29.165Z,1015.67
2018-11-01T12:18:56.524Z,1015.64
2018-11-01T12:20:23.893Z,1015.58
2018-11-01T12:21:51.186Z,1015.53
2018-11-01T12:23:18.545Z,1015.47
2018-11-01T12:24:45.992Z,1015.45
2018-11-01T12:26:13.369Z,1015.46
2018-11-01T12:27:40.696Z,1015.45
2018-11-01T12:29:08.016Z,1015.42
2018-11-01T12:30:35.292Z,1015.34
2018-11-01T12:32:02.640Z,1015.32
2018-11-01T12:33:30.047Z,1015.30
2018-11-01T12:34:57.449Z,1015.29
2018-11-01T12:36:24.885Z,1015.26
2018-11-01T12:37:52.011Z,1015.20
2018-11-01T12:39:19.213Z,1015.13
2018-11-01T12:40:46.495Z,1015.09
2018-11-01T12:42:13.892Z,1015.06
2018-11-01T12:43:41.263Z,1015.05
2018-11-01T12:45:08.464Z,1015.06
2018-11-01T12:46:35.670Z,1015.01
2018-11-01T12:48:02.985Z,1015.02
2018-11-01T12:49:30.110Z,1015.03
2018-11-01T12:50:57.354Z,1015.04
2018-11-01T12:52:24.546Z,1015.06
2018-11-01T12:53:51.738Z,1015.01
2018-11-01T12:55:19.050Z,1015.01
2018-11-01T12:56:46.435Z,1014.98
2018-11-01T12:58:13.615Z,1014.99
2018-11-01T12:59:50.783Z,1014.98
2018-11-01T13:01:17.886Z,1015.00
2018-11-01T13:02:45.138Z,1014.98
2018-11-01T13:11:28.637Z,1014.79
2018-11-01T13:12:55.038Z,1014.76
2018-11-01T13:14:22.216Z,1014.75
2018-11-01T13:15:49.432Z,1014.77
2018-11-01T13:17:16.464Z,1014.79
2018-11-01T13:18:43.676Z,1014.78
2018-11-01T13:20:11.043Z,1014.75
2018-11-01T13:21:38.450Z,1014.73
2018-11-01T13:23:05.774Z,1014.76
2018-11-01T13:24:33.134Z,1014.76
2018-11-01T13:26:00.400Z,1014.79
2018-11-01T13:27:27.615Z,1014.87
2018-11-01T20:16:44.777Z,1013.09
2018-11-01T20:18:11.488Z,1013.13
2018-11-01T20:19:38.731Z,1013.11
